KBAM/BAM METAR and TAF weather

Enter ICAO airport designator
Station Type Date Time Source
KBAM METAR 2020/07/12 06:15 UTC NOAA

KBAM 120615Z AUTO 14006KT 10SM CLR 23/M10 A3013 RMK AO1


Station Type Date Time Source
KBAM Decoded METAR 2020/07/12 06:15 UTC NOAA

Station name not available
Jul 12, 2020 - 02:15 AM EDT / 2020.07.12 0615 UTC
Wind: from the SE (140 degrees) at 7 MPH (6 KT):0
Visibility: 10 mile(s):0
Sky conditions: clear
Temperature: 73 F (23 C)
Dew Point: 14 F (-10 C)
Relative Humidity: 10%
Pressure (altimeter): 30.13 in. Hg (1020 hPa)
ob: KBAM 120615Z AUTO 14006KT 10SM CLR 23/M10 A3013 RMK AO1
cycle: 6

Station Type Date Time Source
KBAM TAF 2020/07/12 06:22 UTC NOAA

TAF KBAM 120520Z 1206/1306 VRB06KT P6SM SKC
FM121900 24010G20KT P6SM SKC
FM122200 24015G25KT P6SM SKC

Example: see airport list